首页
METAR-TAF:

METAR-TAF

机场 :

迪拜国际机场

杜拜, 阿拉伯联合酋长国

纬度: 25-15-10N, 经度: 055-21-52E, 海拔: 8米

当前天气观测

该预报发布于56分钟前的10:00 UTC
风速3节,风向多变
温度 30°C
湿度 17%
气压 1014 hPa
能见度10公里或以上
1500米以下无云,无积雨云

METAR: OMDB 121000Z VRB03KT CAVOK 30/02 Q1014 BECMG 35010KT

时间: 14:56 (10:56 UTC)

预报

该预报发布于5小时和58分钟前的04:58 UTC
预报有效从12日的 06点(UTC)到 13日的 12点(UTC)
风速8节,风向
能见度10公里或以上
少量云层高于4500英尺
成为
从 12日的 10点(UTC)到 12日的 12点(UTC)
风速10节,风向
成为
从 12日的 13点(UTC)到 12日的 15点(UTC)
风速5节,风向
成为
从 13日的 08点(UTC)到 13日的 10点(UTC)
风速12节,风向

TAF: OMDB 120458Z 1206/1312 10008KT 9999 FEW045 BECMG 1210/1212 36010KT BECMG 1213/1215 10005KT BECMG 1308/1310 36012KT

超过4000个机场的气象观测和天气预报(METAR&TAF报告)。

可查询的气象台以黄色和红色小点在地图上表示。

将鼠标移到小点上方,可查看气象台名称。

然后点击查看天气观测和预报。

如需切换地图:点击带黑十字的绿色按钮放大地图;点击带横线的绿色按钮缩小地图;或者点击绿色箭头查看邻近地区的地图。


METAR-TAF: